This is the latest recevied weather packets stored in our database for station/object IW1RID-3. If no packets are shown the sender has not sent any weather packets the latest 10 day(s).
| Time | Temp. | Humidity | Pressure | Rain* | Wind** | Luminosity | Snow |
|---|---|---|---|---|---|---|---|
| 1787666078 | 30° C | 67% | 1068.7 hPa | - | - | - | - |
| 1787664872 | 30.56° C | 66% | 1068.8 hPa | - | - | - | - |
| 1787663665 | 29.44° C | 67% | 1068.4 hPa | - | - | - | - |
| 1787662460 | 30.56° C | 57% | 1068.2 hPa | - | - | - | - |
| 1787661254 | 31.11° C | 58% | 1068 hPa | - | - | - | - |
| 1787660048 | 31.11° C | 57% | 1067.9 hPa | - | - | - | - |
| 1787658844 | 29.44° C | 59% | 1068.1 hPa | - | - | - | - |
| 1787657638 | 28.89° C | 60% | 1068 hPa | - | - | - | - |
| 1787656431 | 28.89° C | 57% | 1068 hPa | - | - | - | - |
| 1787655227 | 28.33° C | 53% | 1068.2 hPa | - | - | - | - |
| 1787654020 | 27.22° C | 55% | 1068.2 hPa | - | - | - | - |
| 1787652814 | 26.67° C | 58% | 1068.2 hPa | - | - | - | - |
| 1787651609 | 26.11° C | 58% | 1068.1 hPa | - | - | - | - |
| 1787649199 | 25.56° C | 53% | 1067.8 hPa | - | - | - | - |
| 1787647994 | 25° C | 62% | 1067.7 hPa | - | - | - | - |
| 1787646789 | 23.89° C | 69% | 1067.7 hPa | - | - | - | - |
| 1787645584 | 22.78° C | 71% | 1067.8 hPa | - | - | - | - |
| 1787644379 | 21.67° C | 76% | 1067.7 hPa | - | - | - | - |
| 1787643174 | 20.56° C | 77% | 1067.7 hPa | - | - | - | - |
| 1787641969 | 20° C | 80% | 1067.8 hPa | - | - | - | - |
| 1787640764 | 19.44° C | 81% | 1067.9 hPa | - | - | - | - |
| 1787639560 | 18.89° C | 81% | 1067.8 hPa | - | - | - | - |
| 1787638355 | 18.33° C | 87% | 1067.8 hPa | - | - | - | - |
| 1787637150 | 17.78° C | 90% | 1067.7 hPa | - | - | - | - |
| 1787635945 | 17.78° C | 92% | 1067.8 hPa | - | - | - | - |
* Rain since midnight (hover to see other rain measurements)
** Current wind speed in m/s (hover to see current wind gust speed)